Avalon Express — WDD7919 — position and weather

sailwx.info

Track history (hours):
 
Tides and Currents Weather Stations Pressure Air Temp Water Temp Dewpoint Dewpoint Depression Visibility Wind Speed Wind Dir Waves Ship Positions

Avalon Express

Owner: RGWT INC, San Pedro, CA. More information available from US FCC via Universal Licensing System and Coast Guard Vessel Documentation Center.

Last reported at 2015-Jan-31 18:33 UTC. Time now 2015-Feb-01 10:15 UTC.
Position N 33°21' W 118°19'.

Type: High speed craft. MMSI: 367192940.

Date/timePositionNaut miles runAvg speedWind from/ knotsBaromVisibWave heightAir tempDewpointWater temp
2015-Jan-31 18:33N 33°21' W 118°19'2411.5
2015-Jan-31 16:29N 33°45' W 118°16'24 1.7
2015-Jan-31 02:33N 33°21' W 118°19'10 8.1
2015-Jan-31 01:19N 33°28' W 118°28'1923.9
2015-Jan-31 00:32N 33°43' W 118°16'1 1.5
2015-Jan-30 23:32N 33°45' W 118°16'0 0.0
2015-Jan-30 22:33N 33°45' W 118°16'0 0.0
2015-Jan-30 21:24N 33°45' W 118°16'2 2.2
2015-Jan-30 20:31N 33°43' W 118°16'1913.4
2015-Jan-30 19:06N 33°27' W 118°28'1017.0
2015-Jan-30 18:31N 33°21' W 118°19'1515.7
2015-Jan-30 17:33N 33°35' W 118°16'9 0.2
2015-Jan-29 03:15N 33°45' W 118°16'0 0.0
2015-Jan-29 02:33N 33°45' W 118°16'1818.6
2015-Jan-29 01:33N 33°27' W 118°18'13 6.1
2015-Jan-28 23:20N 33°40' W 118°17'2 0.7
2015-Jan-28 20:10N 33°38' W 118°18'1610.2
2015-Jan-28 18:33N 33°22' W 118°20'1312.8
2015-Jan-28 17:33N 33°34' W 118°16'11 7.3
2015-Jan-28 16:05N 33°45' W 118°16'23 0.6
2015-Jan-27 01:21N 33°22' W 118°19'16 8.3
2015-Jan-26 23:27N 33°38' W 118°19'8 8.4
2015-Jan-26 22:33N 33°45' W 118°16'24 6.0
2015-Jan-26 18:32N 33°21' W 118°19'4 0.3
2015-Jan-26 01:28N 33°25' W 118°18'5 0.6
2015-Jan-25 18:25N 33°21' W 118°19'1719.1
2015-Jan-25 17:33N 33°37' W 118°17'8 6.8
2015-Jan-25 16:23N 33°45' W 118°16'0 0.0
2015-Jan-24 04:07N 33°45' W 118°16'611.5
2015-Jan-24 03:34N 33°39' W 118°14'1918.5
2015-Jan-24 02:33N 33°21' W 118°19'13 9.2
2015-Jan-24 01:11N 33°32' W 118°24'1319.3
2015-Jan-24 00:31N 33°44' W 118°16'7 1.6
2015-Jan-23 20:07N 33°37' W 118°19'1610.1
2015-Jan-23 18:33N 33°21' W 118°19'1615.8
2015-Jan-23 17:34N 33°37' W 118°15'8 6.7
2015-Jan-23 16:20N 33°45' W 118°16'0 0.0
2015-Jan-23 14:17N 33°45' W 118°16'0 0.0
2015-Jan-22 03:33N 33°45' W 118°16'0 0.0
2015-Jan-22 02:33N 33°45' W 118°16'1818.1
2015-Jan-22 01:33N 33°27' W 118°18'7 7.2
2015-Jan-22 00:33N 33°26' W 118°27'1211.8
2015-Jan-21 23:32N 33°37' W 118°19'7 2.3
2015-Jan-21 20:25N 33°43' W 118°16'  
Track history (hours):
 
Tides and Currents Weather Stations Pressure Air Temp Water Temp Dewpoint Dewpoint Depression Visibility Wind Speed Wind Dir Waves Ship Positions

Avalon Express

Owner: RGWT INC, San Pedro, CA. More information available from US FCC via Universal Licensing System and Coast Guard Vessel Documentation Center.

Last reported at 2015-Jan-31 18:33 UTC. Time now 2015-Feb-01 10:15 UTC.
Position N 33°21' W 118°19'.

Type: High speed craft. MMSI: 367192940.

Date/timePositionNaut miles runAvg speedWind from/ knotsBaromVisibWave heightAir tempDewpointWater temp
2015-Jan-31 18:33N 33°21' W 118°19'2411.5
2015-Jan-31 16:29N 33°45' W 118°16'24 1.7
2015-Jan-31 02:33N 33°21' W 118°19'10 8.1
2015-Jan-31 01:19N 33°28' W 118°28'1923.9
2015-Jan-31 00:32N 33°43' W 118°16'1 1.5
2015-Jan-30 23:32N 33°45' W 118°16'0 0.0
2015-Jan-30 22:33N 33°45' W 118°16'0 0.0
2015-Jan-30 21:24N 33°45' W 118°16'2 2.2
2015-Jan-30 20:31N 33°43' W 118°16'1913.4
2015-Jan-30 19:06N 33°27' W 118°28'1017.0
2015-Jan-30 18:31N 33°21' W 118°19'1515.7
2015-Jan-30 17:33N 33°35' W 118°16'9 0.2
2015-Jan-29 03:15N 33°45' W 118°16'0 0.0
2015-Jan-29 02:33N 33°45' W 118°16'1818.6
2015-Jan-29 01:33N 33°27' W 118°18'13 6.1
2015-Jan-28 23:20N 33°40' W 118°17'2 0.7
2015-Jan-28 20:10N 33°38' W 118°18'1610.2
2015-Jan-28 18:33N 33°22' W 118°20'1312.8
2015-Jan-28 17:33N 33°34' W 118°16'11 7.3
2015-Jan-28 16:05N 33°45' W 118°16'23 0.6
2015-Jan-27 01:21N 33°22' W 118°19'16 8.3
2015-Jan-26 23:27N 33°38' W 118°19'8 8.4
2015-Jan-26 22:33N 33°45' W 118°16'24 6.0
2015-Jan-26 18:32N 33°21' W 118°19'4 0.3
2015-Jan-26 01:28N 33°25' W 118°18'5 0.6
2015-Jan-25 18:25N 33°21' W 118°19'1719.1
2015-Jan-25 17:33N 33°37' W 118°17'8 6.8
2015-Jan-25 16:23N 33°45' W 118°16'0 0.0
2015-Jan-24 04:07N 33°45' W 118°16'611.5
2015-Jan-24 03:34N 33°39' W 118°14'1918.5
2015-Jan-24 02:33N 33°21' W 118°19'13 9.2
2015-Jan-24 01:11N 33°32' W 118°24'1319.3
2015-Jan-24 00:31N 33°44' W 118°16'7 1.6
2015-Jan-23 20:07N 33°37' W 118°19'1610.1
2015-Jan-23 18:33N 33°21' W 118°19'1615.8
2015-Jan-23 17:34N 33°37' W 118°15'8 6.7
2015-Jan-23 16:20N 33°45' W 118°16'0 0.0
2015-Jan-23 14:17N 33°45' W 118°16'0 0.0
2015-Jan-22 03:33N 33°45' W 118°16'0 0.0
2015-Jan-22 02:33N 33°45' W 118°16'1818.1
2015-Jan-22 01:33N 33°27' W 118°18'7 7.2
2015-Jan-22 00:33N 33°26' W 118°27'1211.8
2015-Jan-21 23:32N 33°37' W 118°19'7 2.3
2015-Jan-21 20:25N 33°43' W 118°16'  

Dump ship's entire track history